createdAt,value
2019-01-17T00:00:48.219Z,4.26
2019-01-17T00:06:15.771Z,4.52
2019-01-17T00:11:33.329Z,4.71
2019-01-17T00:17:06.843Z,4.72
2019-01-17T00:22:37.131Z,4.89
2019-01-17T00:28:01.135Z,4.78
2019-01-17T00:33:31.786Z,4.83
2019-01-17T00:38:46.231Z,5.00
2019-01-17T00:44:16.670Z,4.89
2019-01-17T00:49:43.942Z,4.91
2019-01-17T00:55:15.308Z,4.97
2019-01-17T01:00:58.429Z,4.94
2019-01-17T01:06:26.003Z,4.93
2019-01-17T01:11:59.881Z,4.96
2019-01-17T01:17:21.232Z,5.03
2019-01-17T01:22:45.928Z,5.03
2019-01-17T01:28:10.975Z,5.25
2019-01-17T01:33:36.070Z,5.21
2019-01-17T01:38:53.415Z,5.23
2019-01-17T01:44:33.567Z,5.22
2019-01-17T01:50:01.232Z,5.29
2019-01-17T01:55:07.621Z,5.32
2019-01-17T02:00:14.877Z,5.39
2019-01-17T02:05:22.578Z,5.54
2019-01-17T02:10:28.598Z,5.47
2019-01-17T02:15:34.393Z,5.56
2019-01-17T02:20:40.661Z,5.56
2019-01-17T02:25:46.405Z,5.57
2019-01-17T02:30:52.476Z,5.53
2019-01-17T02:35:58.398Z,5.46
2019-01-17T02:41:06.623Z,5.45
2019-01-17T02:46:13.262Z,5.41
2019-01-17T02:51:19.147Z,5.32
2019-01-17T02:56:24.958Z,5.37
2019-01-17T03:01:31.132Z,5.40
2019-01-17T03:06:37.185Z,5.47
2019-01-17T03:11:43.022Z,5.55
2019-01-17T03:16:48.979Z,5.55
2019-01-17T03:21:55.319Z,5.64
2019-01-17T03:27:01.037Z,5.62
2019-01-17T03:32:06.771Z,5.64
2019-01-17T03:37:14.668Z,5.74
2019-01-17T03:42:20.613Z,5.79
2019-01-17T03:47:26.241Z,5.76
2019-01-17T03:52:31.913Z,5.62
2019-01-17T03:57:37.531Z,5.62
2019-01-17T04:02:43.112Z,5.63
2019-01-17T04:07:49.313Z,5.63
2019-01-17T04:12:55.530Z,5.66
2019-01-17T04:18:01.709Z,5.44
2019-01-17T04:23:07.338Z,5.59
2019-01-17T04:28:12.962Z,5.46
2019-01-17T04:33:21.990Z,5.34
2019-01-17T04:38:27.607Z,5.56
2019-01-17T04:43:33.219Z,5.50
2019-01-17T04:48:38.818Z,5.43
2019-01-17T04:53:44.414Z,5.59
2019-01-17T04:58:51.008Z,5.58
2019-01-17T05:03:58.534Z,5.53
2019-01-17T05:09:06.473Z,5.44
2019-01-17T05:14:12.117Z,5.49
2019-01-17T05:19:17.797Z,5.49
2019-01-17T05:24:23.552Z,5.52
2019-01-17T05:29:29.748Z,5.57
2019-01-17T05:34:39.599Z,5.48
2019-01-17T05:39:43.497Z,5.71
2019-01-17T05:44:49.405Z,5.59
2019-01-17T05:49:55.198Z,5.66
2019-01-17T05:55:01.200Z,5.69
2019-01-17T06:00:10.483Z,5.81
2019-01-17T06:05:16.736Z,5.70
2019-01-17T06:10:22.697Z,5.70
2019-01-17T06:15:30.655Z,5.71
2019-01-17T06:20:36.918Z,5.65
2019-01-17T06:25:42.796Z,5.72
2019-01-17T06:30:48.623Z,5.73
2019-01-17T06:35:54.494Z,5.88
2019-01-17T06:41:00.466Z,5.76
2019-01-17T06:46:09.595Z,5.90
2019-01-17T06:51:15.634Z,5.67
2019-01-17T06:56:21.875Z,5.74
2019-01-17T07:01:27.806Z,5.79
2019-01-17T07:06:33.779Z,5.94
2019-01-17T07:11:39.882Z,5.88
2019-01-17T07:16:45.687Z,5.88
2019-01-17T07:21:51.620Z,5.98
2019-01-17T07:26:57.374Z,5.89
2019-01-17T07:32:03.243Z,5.86
2019-01-17T07:37:09.125Z,5.87
2019-01-17T07:42:15.221Z,5.97
2019-01-17T07:47:20.939Z,6.17
2019-01-17T07:52:27.126Z,5.84
2019-01-17T07:57:33.078Z,6.01
2019-01-17T08:02:38.954Z,6.07
2019-01-17T08:07:45.154Z,5.93
2019-01-17T08:12:51.105Z,6.13
2019-01-17T08:17:57.004Z,6.00
2019-01-17T08:23:03.301Z,6.00
2019-01-17T08:28:09.289Z,6.15
2019-01-17T08:33:15.078Z,6.09
2019-01-17T08:38:21.736Z,6.38
2019-01-17T08:43:28.176Z,6.28
2019-01-17T08:48:34.335Z,6.31
2019-01-17T08:53:40.103Z,6.24
2019-01-17T08:58:46.410Z,6.42
2019-01-17T09:03:52.366Z,6.35
2019-01-17T09:08:58.414Z,6.31
2019-01-17T09:14:04.750Z,6.31
2019-01-17T09:19:10.482Z,6.46
2019-01-17T09:24:16.567Z,6.56
2019-01-17T09:29:22.451Z,6.42
2019-01-17T09:34:28.304Z,6.63
2019-01-17T09:39:34.082Z,6.64
2019-01-17T09:44:40.517Z,6.63
2019-01-17T09:49:46.411Z,6.78
2019-01-17T09:54:52.358Z,6.70
2019-01-17T09:59:58.417Z,6.64
2019-01-17T10:05:04.923Z,6.53
2019-01-17T10:10:15.584Z,6.51
2019-01-17T10:15:37.479Z,6.59
2019-01-17T10:21:24.616Z,6.67
2019-01-17T10:26:53.433Z,6.70
2019-01-17T10:32:30.061Z,6.56
2019-01-17T10:37:50.039Z,6.67
2019-01-17T10:43:36.887Z,6.51
2019-01-17T10:49:27.721Z,6.60
2019-01-17T10:55:11.078Z,6.69
2019-01-17T11:18:00.282Z,7.27
2019-01-17T11:23:26.920Z,7.43
2019-01-17T11:28:49.715Z,7.27
2019-01-17T11:34:44.713Z,7.37
2019-01-17T11:40:29.556Z,7.28
2019-01-17T11:46:01.854Z,7.27
2019-01-17T11:51:41.147Z,7.31
2019-01-17T11:57:30.829Z,7.61
2019-01-17T12:03:33.029Z,7.68
2019-01-17T12:08:38.658Z,7.67
2019-01-17T12:13:45.847Z,7.60
2019-01-17T12:18:54.697Z,7.72
2019-01-17T12:24:00.310Z,7.69
2019-01-17T12:29:06.165Z,7.61
2019-01-17T12:34:11.810Z,7.54
2019-01-17T12:39:17.893Z,7.70
2019-01-17T12:44:23.506Z,7.51
2019-01-17T12:49:29.089Z,7.13
2019-01-17T12:54:34.728Z,7.35
2019-01-17T12:59:40.343Z,7.35
2019-01-17T13:04:45.969Z,7.45
2019-01-17T13:09:51.578Z,7.36
2019-01-17T13:14:58.614Z,7.36
2019-01-17T13:20:09.935Z,7.13
2019-01-17T13:25:18.354Z,7.12
2019-01-17T13:30:24.804Z,7.35
2019-01-17T13:35:30.493Z,7.45
2019-01-17T13:40:36.151Z,7.27
2019-01-17T13:45:42.080Z,7.26
2019-01-17T13:50:47.701Z,7.15
2019-01-17T13:55:53.284Z,7.32
2019-01-17T14:00:58.875Z,7.06
2019-01-17T14:06:09.264Z,6.71
2019-01-17T14:11:15.041Z,7.12
2019-01-17T14:16:20.969Z,7.01
2019-01-17T14:21:26.766Z,6.90
2019-01-17T14:26:32.388Z,6.38
2019-01-17T14:31:38.092Z,6.49
2019-01-17T14:36:43.775Z,6.28
2019-01-17T14:41:49.647Z,6.50
2019-01-17T14:46:55.256Z,6.29
2019-01-17T14:52:01.722Z,6.29
2019-01-17T14:57:07.421Z,6.12
2019-01-17T15:02:13.469Z,6.12
2019-01-17T15:07:21.132Z,6.18
2019-01-17T15:12:26.834Z,6.18
2019-01-17T15:17:32.504Z,5.92
2019-01-17T15:22:38.290Z,5.87
2019-01-17T15:27:46.046Z,5.81
2019-01-17T15:32:54.926Z,6.03
2019-01-17T15:38:00.929Z,5.71
2019-01-17T15:43:08.440Z,5.90
2019-01-17T15:48:14.108Z,5.85
2019-01-17T15:53:20.756Z,5.57
2019-01-17T15:58:26.423Z,5.57
2019-01-17T16:03:32.183Z,5.53
2019-01-17T16:08:37.792Z,5.84
2019-01-17T16:13:44.531Z,5.84
2019-01-17T16:18:50.647Z,5.84
2019-01-17T16:23:56.338Z,5.79
2019-01-17T16:29:02.036Z,5.52
2019-01-17T16:34:07.685Z,5.43
2019-01-17T16:39:14.031Z,5.37
2019-01-17T16:44:19.746Z,5.24
2019-01-17T16:49:27.297Z,5.36
2019-01-17T16:54:35.910Z,5.37
2019-01-17T16:59:41.557Z,5.37
2019-01-17T17:04:48.864Z,5.22
2019-01-17T17:09:56.684Z,5.32
2019-01-17T17:15:06.078Z,5.17
2019-01-17T17:20:15.400Z,5.19
2019-01-17T17:25:24.022Z,5.14
2019-01-17T17:30:30.168Z,5.07
2019-01-17T17:35:35.912Z,5.12
2019-01-17T17:40:41.578Z,5.12
2019-01-17T17:45:47.323Z,5.07
2019-01-17T17:50:53.536Z,5.07
2019-01-17T17:55:59.517Z,4.97
2019-01-17T18:01:38.976Z,5.08
2019-01-17T18:06:45.071Z,5.09
2019-01-17T18:11:50.899Z,4.98
2019-01-17T18:16:58.794Z,5.03
2019-01-17T18:22:06.683Z,5.00
2019-01-17T18:27:13.693Z,4.97
2019-01-17T18:32:22.526Z,5.10
2019-01-17T18:37:28.261Z,5.10
2019-01-17T18:42:37.067Z,5.15
2019-01-17T18:47:43.245Z,5.16
2019-01-17T18:52:49.354Z,5.20
2019-01-17T18:57:55.525Z,5.12
2019-01-17T19:03:02.569Z,5.17
2019-01-17T19:08:13.720Z,5.18
2019-01-17T19:13:23.296Z,5.37
2019-01-17T19:18:37.564Z,4.97
2019-01-17T19:23:44.950Z,4.28
2019-01-17T19:28:54.809Z,3.94
2019-01-17T19:34:00.605Z,3.86
2019-01-17T19:39:13.936Z,3.77
2019-01-17T19:44:22.491Z,3.66
2019-01-17T19:49:31.327Z,3.50
2019-01-17T19:54:41.947Z,3.37
2019-01-17T19:59:49.126Z,3.37
2019-01-17T20:10:05.630Z,3.63
2019-01-17T20:15:13.519Z,3.55
2019-01-17T20:20:21.950Z,3.81
2019-01-17T20:25:28.080Z,3.51
2019-01-17T20:30:39.119Z,3.72
2019-01-17T20:35:47.757Z,3.68
2019-01-17T20:40:58.266Z,3.52
2019-01-17T20:46:05.047Z,3.54
2019-01-17T20:51:11.697Z,3.65
2019-01-17T20:56:17.508Z,3.57
2019-01-17T21:02:11.191Z,3.35
2019-01-17T21:07:18.378Z,3.52
2019-01-17T21:12:24.403Z,3.39
2019-01-17T21:17:30.296Z,3.29
2019-01-17T21:22:37.272Z,3.51
2019-01-17T21:27:45.325Z,3.41
2019-01-17T21:32:51.132Z,3.23
2019-01-17T21:38:00.426Z,3.24
2019-01-17T21:43:06.499Z,3.09
2019-01-17T21:48:12.183Z,2.95
2019-01-17T21:53:20.785Z,3.05
2019-01-17T21:58:26.829Z,3.02
2019-01-17T22:03:32.527Z,2.78
2019-01-17T22:08:38.196Z,2.94
2019-01-17T22:13:43.923Z,2.80
2019-01-17T22:18:49.570Z,2.89
2019-01-17T22:23:58.594Z,2.76
2019-01-17T22:29:05.743Z,2.77
2019-01-17T22:34:11.491Z,2.64
2019-01-17T22:39:17.145Z,2.77
2019-01-17T22:44:22.920Z,2.92
2019-01-17T22:49:30.399Z,2.68
2019-01-17T22:54:36.233Z,2.79
2019-01-17T22:59:41.877Z,2.89
2019-01-17T23:04:47.568Z,2.70
2019-01-17T23:09:53.239Z,2.67
2019-01-17T23:14:58.837Z,2.71
2019-01-17T23:20:05.347Z,2.87
2019-01-17T23:25:11.346Z,2.63
2019-01-17T23:30:23.649Z,2.45
2019-01-17T23:35:30.014Z,2.52
2019-01-17T23:40:35.645Z,2.40
2019-01-17T23:45:41.243Z,2.50
2019-01-17T23:56:09.731Z,2.28
